Harenkarspel, Netherlands
Current Conditions -  °F | °C
As of 7:55 AM on Tuesday 21 Oct 2014 (Local Time) from EHKD Reporting Station
Broken Clouds Broken Clouds  
Wind Chill: 59°   Ceiling: 6300
Heat Index: 59°   Visibility: 6mi
Dew Point: 54°   Wind: 20mph
Humidity: 82%   Direction: 220°SW
Pressure: 29.59"   Gusts: NA
Location:  52.73°N, 4.78°E
Report Text: EHKD 210555Z AUTO 22017KT 9999 FEW021 SCT055 BKN063 15/12 Q1002 BLU 22020G34KT 9999 FEW015 SCT020 BKN040 BECMG 25020G35KT BKN015 OVC020
Loading
Personal Weather Stations






























Interactive Weather Map
Tropical Storm Tracking
New forecast layout! Learn more

10-Day Weather Forecast

Advertisements
Track Severe Weather on mobile